Language selection

Features

My Weather Profile Weather Topics  | 

Lake Melville: Past 24 Hour Conditions

 

Blanc-Sablon Airport

09:00 PM AST 17 January 2020
Disclaimer

This table is a summary of hourly weather conditions for the past 24 hours.
Please note that these observations might not always be representative of weather conditions over their associated marine area.

Date / Time
(AST)
Wind(knots) Conditions Visibility(km) Pressure(kPa) Air tempC) Relative humidity(%) Dew pointC) Wind Chill
17 January 2020
21:00 N 29 gust 46 Blowing Snow 4 100.5 -17 71 -21 -31
20:00 N 29 gust 43 Blowing Snow 3 100.6 -18 76 -21 -33
19:00 N 24 gust 32 Clear 24 100.7 -19 67 -24 -33
18:00 N 19 gust 29 Clear 24 100.9 -20 53 -27 -33
17:00 N 23 gust 35 Drifting Snow 24 100.9 -19 54 -26 -33
16:00 N 16 gust 24 Drifting Snow 24 100.9 -19 54 -26 -31
15:00 N 17 gust 24 Drifting Snow 24 100.9 -19 52 -26 -31
14:00 N 15 gust 26 Mainly Sunny 24 101.0 -18 48 -27 -30
13:00 N 17 gust 25 Drifting Snow 24 101.1 -19 49 -27 -31
12:00 NNE 17 gust 25 Drifting Snow 24 101.2 -20 48 -28 -33
11:00 NNE 21 gust 30 Drifting Snow 24 101.3 -21 54 -28 -36
10:00 NNE 15 gust 24 Mainly Sunny 24 101.3 -23 56 -29 -36
9:00 NNE 16 gust 24 Mainly Sunny 24 101.4 -24 58 -30 -38
8:00 NNE 16 gust 23 Mainly Sunny 24 101.3 -24 58 -30 -37
7:00 NNE 15 gust 22 Mainly Clear 24 101.3 -23 55 -30 -36
6:00 NNE 19 gust 28 Mainly Clear 24 101.3 -22 56 -29 -36
5:00 NNE 13 gust 20 Partly Cloudy 24 101.2 -21 59 -27 -33
4:00 NNE 13 gust 21 Partly Cloudy 24 101.2 -20 59 -26 -31
3:00 NNE 11 Partly Cloudy 24 101.1 -18 63 -24 -29
2:00 NNE 17 Partly Cloudy 24 101.0 -18 61 -24 -30
1:00 NNE 11 gust 16 Partly Cloudy 24 100.9 -17 60 -23 -26
0:00 NNW 3 Partly Cloudy 24 101.0 -17 63 -23 -22
16 January 2020
23:00 NNW 4 Partly Cloudy 24 101.0 -17 70 -22 -23
22:00 WNW 5 Partly Cloudy 24 101.1 -18 74 -21 -24
21:00 NW 4 Partly Cloudy 24 101.1 -18 75 -22 -24

Zoom-in to make a selection

Map of Atlantic - Newfoundland marine weather areas Banquereau - 44139 Blanc-Sablon Airport Cap Whittle Chevery Natashquan Airport Heath Point Îles de la Madeleine Airport Miscou Island Eskasoni (First Nations) Grand Étang Ingonish Beach North Mountain St.Paul Island J.A. Douglas McCurdy Sydney Airport Charlottetown Airport East Point North Cape Argentia Bonavista Burgeo Cape Race Corner Brook Daniel's Harbour Englee Ferolle Point La Scie Port aux Basques Rocky Harbour Sagona Island St. Anthony Airport St. John's Int'l Airport St. Lawrence Stephenville Airport Twillingate Winterland Branch Hill Wreckhouse Grates Cove Pool's Island Marticot Island Long Pond Cartwright Airport Mary's Harbour
Legend:
buoy Buoy
land station Land Station

Atlantic - Newfoundland Area

Another Region

What we are doing

Date modified: